createdAt,value
2023-03-31T00:01:22.759Z,37.21
2023-03-31T00:07:10.176Z,37.27
2023-03-31T00:13:03.673Z,37.32
2023-03-31T00:18:46.422Z,37.38
2023-03-31T00:24:33.962Z,37.44
2023-03-31T00:30:16.462Z,37.50
2023-03-31T00:36:05.022Z,37.54
2023-03-31T00:41:52.521Z,37.61
2023-03-31T00:47:35.389Z,37.70
2023-03-31T00:58:44.753Z,37.86
2023-03-31T01:04:03.671Z,37.91
2023-03-31T01:09:22.639Z,37.94
2023-03-31T01:15:09.824Z,37.98
2023-03-31T01:20:52.250Z,38.09
2023-03-31T01:26:08.667Z,38.11
2023-03-31T01:31:48.394Z,38.15
2023-03-31T01:37:01.669Z,38.17
2023-03-31T01:42:49.329Z,38.25
2023-03-31T01:48:06.105Z,38.28
2023-03-31T01:53:19.840Z,38.32
2023-03-31T01:58:27.224Z,38.32
2023-03-31T02:03:34.916Z,38.38
2023-03-31T02:08:42.490Z,38.38
2023-03-31T02:13:50.036Z,38.42
2023-03-31T02:18:59.482Z,38.50
2023-03-31T02:24:07.200Z,38.49
2023-03-31T02:29:14.700Z,38.51
2023-03-31T02:34:22.422Z,38.54
2023-03-31T02:39:30.012Z,38.57
2023-03-31T02:44:37.759Z,38.61
2023-03-31T02:49:56.638Z,38.63
2023-03-31T02:55:08.952Z,38.67
2023-03-31T03:00:16.567Z,38.70
2023-03-31T03:06:03.849Z,38.73
2023-03-31T03:11:44.428Z,38.76
2023-03-31T03:17:26.952Z,38.83
2023-03-31T03:23:09.645Z,38.80
2023-03-31T03:28:52.029Z,38.86
2023-03-31T03:33:59.551Z,38.90
2023-03-31T03:39:42.394Z,38.92
2023-03-31T03:45:29.655Z,38.98
2023-03-31T03:51:12.976Z,38.98
2023-03-31T03:56:20.601Z,38.96
2023-03-31T04:02:07.890Z,38.94
2023-03-31T04:07:50.169Z,38.96
2023-03-31T04:13:35.644Z,39.01
2023-03-31T04:19:18.128Z,39.07
2023-03-31T04:25:00.523Z,39.08
2023-03-31T04:35:55.915Z,39.02
2023-03-31T04:41:43.110Z,39.06
2023-03-31T04:47:40.699Z,38.97
2023-03-31T04:53:23.157Z,38.96
2023-03-31T05:04:11.724Z,38.97
2023-03-31T05:09:28.704Z,38.94
2023-03-31T05:15:15.930Z,38.90
2023-03-31T05:20:26.614Z,38.96
2023-03-31T05:26:06.859Z,38.92
2023-03-31T05:31:21.257Z,38.98
2023-03-31T05:36:53.259Z,38.91
2023-03-31T05:41:56.041Z,38.96
2023-03-31T05:47:08.123Z,38.99
2023-03-31T05:52:15.615Z,38.95
2023-03-31T05:57:23.094Z,38.91
2023-03-31T06:02:30.512Z,38.78
2023-03-31T06:07:37.800Z,38.77
2023-03-31T06:12:45.430Z,38.67
2023-03-31T06:17:52.921Z,38.54
2023-03-31T06:23:04.983Z,38.57
2023-03-31T06:28:12.410Z,38.59
2023-03-31T06:33:19.571Z,38.45
2023-03-31T06:38:26.850Z,38.48
2023-03-31T06:43:34.135Z,38.45
2023-03-31T06:48:41.437Z,38.32
2023-03-31T06:53:48.580Z,38.38
2023-03-31T06:58:55.979Z,38.42
2023-03-31T07:04:03.169Z,38.32
2023-03-31T07:09:10.597Z,38.48
2023-03-31T07:14:18.361Z,38.48
2023-03-31T07:19:25.503Z,38.45
2023-03-31T07:24:32.766Z,38.53
2023-03-31T07:29:39.979Z,38.64
2023-03-31T07:34:47.143Z,39.09
2023-03-31T07:39:54.338Z,38.92
2023-03-31T07:45:01.543Z,38.62
2023-03-31T07:50:08.697Z,38.44
2023-03-31T07:55:15.894Z,37.95
2023-03-31T08:00:23.087Z,37.72
2023-03-31T08:05:30.352Z,37.74
2023-03-31T08:10:37.541Z,38.25
2023-03-31T08:15:44.851Z,39.53
2023-03-31T08:20:52.010Z,39.61
2023-03-31T08:25:59.217Z,39.46
2023-03-31T08:31:06.407Z,38.96
2023-03-31T08:36:13.700Z,38.88
2023-03-31T08:41:20.850Z,38.76
2023-03-31T08:46:28.242Z,38.49
2023-03-31T08:51:35.418Z,38.38
2023-03-31T08:56:42.754Z,38.28
2023-03-31T09:01:56.236Z,38.22
2023-03-31T09:06:56.983Z,38.04
2023-03-31T09:12:04.162Z,38.20
2023-03-31T09:17:14.517Z,38.08
2023-03-31T09:22:21.666Z,38.39
2023-03-31T09:27:28.972Z,38.43
2023-03-31T09:32:36.448Z,38.65
2023-03-31T09:37:43.616Z,38.58
2023-03-31T09:42:50.889Z,38.28
2023-03-31T09:47:58.255Z,38.10
2023-03-31T09:53:05.374Z,37.83
2023-03-31T09:58:12.679Z,37.86
2023-03-31T10:03:19.897Z,37.95
2023-03-31T10:08:27.157Z,37.91
2023-03-31T10:13:34.415Z,37.84
2023-03-31T10:18:41.635Z,37.80
2023-03-31T10:23:48.784Z,37.68
2023-03-31T10:28:56.057Z,37.67
2023-03-31T10:34:03.362Z,37.61
2023-03-31T10:39:10.539Z,37.93
2023-03-31T10:44:17.706Z,37.86
2023-03-31T10:49:24.924Z,37.78
2023-03-31T10:54:32.167Z,37.58
2023-03-31T10:59:39.384Z,37.70
2023-03-31T11:04:46.704Z,37.54
2023-03-31T11:09:53.862Z,37.37
2023-03-31T11:15:01.134Z,37.49
2023-03-31T11:20:08.449Z,37.50
2023-03-31T11:25:15.627Z,37.37
2023-03-31T11:30:22.781Z,37.33
2023-03-31T11:35:30.071Z,37.22
2023-03-31T11:40:37.255Z,37.18
2023-03-31T11:45:44.631Z,37.20
2023-03-31T11:50:51.839Z,37.40
2023-03-31T11:55:59.011Z,37.32
2023-03-31T12:01:06.289Z,37.33
2023-03-31T12:06:13.526Z,37.42
2023-03-31T12:11:20.726Z,37.69
2023-03-31T12:16:28.016Z,37.64
2023-03-31T12:21:35.261Z,37.74
2023-03-31T12:26:42.548Z,37.53
2023-03-31T12:31:49.890Z,37.89
2023-03-31T12:36:57.031Z,37.54
2023-03-31T12:42:04.389Z,38.82
2023-03-31T12:47:11.658Z,38.98
2023-03-31T12:52:18.954Z,38.60
2023-03-31T12:57:26.240Z,39.95
2023-03-31T13:02:33.543Z,40.20
2023-03-31T13:07:40.801Z,40.22
2023-03-31T13:12:48.025Z,39.70
2023-03-31T13:17:55.285Z,39.32
2023-03-31T13:23:02.452Z,37.95
2023-03-31T13:28:09.621Z,38.34
2023-03-31T13:33:18.321Z,39.06
2023-03-31T13:38:24.171Z,39.46
2023-03-31T13:43:31.409Z,38.99
2023-03-31T13:48:38.686Z,38.34
2023-03-31T13:53:45.916Z,37.61
2023-03-31T13:58:53.146Z,37.29
2023-03-31T14:04:00.426Z,37.17
2023-03-31T14:09:07.669Z,37.28
2023-03-31T14:14:14.873Z,37.17
2023-03-31T14:24:29.289Z,35.40
2023-03-31T14:29:36.480Z,36.00
2023-03-31T14:34:43.777Z,36.45
2023-03-31T14:39:50.943Z,36.90
2023-03-31T14:44:58.122Z,36.88
2023-03-31T14:50:07.473Z,36.98
2023-03-31T14:55:12.498Z,36.45
2023-03-31T15:00:19.665Z,36.61
2023-03-31T15:05:26.886Z,37.29
2023-03-31T15:10:34.014Z,36.26
2023-03-31T15:15:41.250Z,37.28
2023-03-31T15:20:48.412Z,37.81
2023-03-31T15:25:55.611Z,37.81
2023-03-31T15:31:10.101Z,36.16
2023-03-31T15:36:09.985Z,37.48
2023-03-31T15:41:17.171Z,37.00
2023-03-31T15:46:24.352Z,37.04
2023-03-31T15:51:31.523Z,36.90
2023-03-31T15:56:38.825Z,36.95
2023-03-31T16:01:46.113Z,36.78
2023-03-31T16:06:53.293Z,36.16
2023-03-31T16:12:00.584Z,35.25
2023-03-31T16:17:07.907Z,34.51
2023-03-31T16:22:15.297Z,34.02
2023-03-31T16:27:22.597Z,34.24
2023-03-31T16:32:29.820Z,34.17
2023-03-31T16:37:37.055Z,34.62
2023-03-31T16:42:44.300Z,34.33
2023-03-31T16:47:53.113Z,35.10
2023-03-31T16:52:58.632Z,35.20
2023-03-31T16:58:05.862Z,35.32
2023-03-31T17:03:14.313Z,35.32
2023-03-31T17:08:21.615Z,35.39
2023-03-31T17:13:28.841Z,35.41
2023-03-31T17:18:36.253Z,35.48
2023-03-31T17:23:43.452Z,35.46
2023-03-31T17:28:50.793Z,35.45
2023-03-31T17:33:58.307Z,35.47
2023-03-31T17:39:05.727Z,35.49
2023-03-31T17:44:13.216Z,35.50
2023-03-31T17:49:21.147Z,35.53
2023-03-31T17:54:28.667Z,35.58
2023-03-31T17:59:37.609Z,35.62
2023-03-31T18:04:43.598Z,35.64
2023-03-31T18:09:51.080Z,35.62
2023-03-31T18:14:58.633Z,35.61
2023-03-31T18:20:06.011Z,35.63
2023-03-31T18:25:13.451Z,35.67
2023-03-31T18:30:20.971Z,35.65
2023-03-31T18:35:28.324Z,35.62
2023-03-31T18:40:35.857Z,35.65
2023-03-31T18:45:43.598Z,35.66
2023-03-31T18:50:51.135Z,35.65
2023-03-31T18:55:58.817Z,35.58
2023-03-31T19:01:06.523Z,35.60
2023-03-31T19:06:14.047Z,35.60
2023-03-31T19:11:21.664Z,35.64
2023-03-31T19:16:29.417Z,35.61
2023-03-31T19:21:37.092Z,35.59
2023-03-31T19:26:44.810Z,35.67
2023-03-31T19:31:52.607Z,35.61
2023-03-31T19:37:00.447Z,35.65
2023-03-31T19:42:08.263Z,35.62
2023-03-31T19:47:16.016Z,35.65
2023-03-31T19:52:23.394Z,35.62
2023-03-31T19:57:30.854Z,35.59
2023-03-31T20:02:38.614Z,35.55
2023-03-31T20:07:46.052Z,35.60
2023-03-31T20:12:53.825Z,35.64
2023-03-31T20:18:01.503Z,35.61
2023-03-31T20:23:09.177Z,35.59
2023-03-31T20:28:16.788Z,35.58
2023-03-31T20:33:24.586Z,35.55
2023-03-31T20:38:31.948Z,35.50
2023-03-31T20:43:39.203Z,35.55
2023-03-31T20:48:46.560Z,35.54
2023-03-31T20:53:53.787Z,35.53
2023-03-31T20:59:01.103Z,35.52
2023-03-31T21:04:08.512Z,35.44
2023-03-31T21:09:15.629Z,35.41
2023-03-31T21:14:22.832Z,35.41
2023-03-31T21:19:30.154Z,35.39
2023-03-31T21:24:37.414Z,35.39
2023-03-31T21:29:44.714Z,35.39
2023-03-31T21:34:52.014Z,35.34
2023-03-31T21:39:59.284Z,35.35
2023-03-31T21:45:06.578Z,35.38
2023-03-31T21:50:13.871Z,35.32
2023-03-31T21:55:21.139Z,35.36
2023-03-31T22:00:28.390Z,35.36
2023-03-31T22:05:35.674Z,35.36
2023-03-31T22:10:42.906Z,35.32
2023-03-31T22:15:50.188Z,35.32
2023-03-31T22:21:39.155Z,35.83
2023-03-31T22:27:35.140Z,35.61
2023-03-31T22:32:53.912Z,35.58
2023-03-31T22:38:36.198Z,35.56
2023-03-31T22:48:57.020Z,35.61
2023-03-31T22:54:18.927Z,35.61
2023-03-31T23:00:33.736Z,35.64
2023-03-31T23:07:11.096Z,35.69
2023-03-31T23:12:09.856Z,35.80
2023-03-31T23:17:24.662Z,35.81
2023-03-31T23:23:10.389Z,35.88
2023-03-31T23:28:53.137Z,35.94
2023-03-31T23:34:14.667Z,35.93
2023-03-31T23:40:01.889Z,36.06
2023-03-31T23:45:49.349Z,35.95
2023-03-31T23:52:21.651Z,36.05
2023-03-31T23:57:06.047Z,36.05
